Ryl'sk, Russia
Current Conditions -  °F | °C
As of 6:00 AM on Saturday 25 Oct 2014 (Local Time) from UUOK Reporting Station
Clear Clear  
Wind Chill: 12°   Ceiling: Unl
Heat Index: 12°   Visibility: 6mi
Dew Point:   Wind: 2mph
Humidity: 85%   Direction: 360°N
Pressure: 30.65"   Gusts: NA
Location:  51.36°N, 34.4°E
Report Text: UUOK 250300Z 36001MPS CAVOK M11/M13 Q1038 NOSIG RMK 12CLRD70
Loading
Personal Weather Stations






























Interactive Weather Map
Tropical Storm Tracking
New forecast layout! Learn more

10-Day Weather Forecast

Advertisements
Track Severe Weather on mobile